sensor_id;sensor_type;location;lat;lon;timestamp;pressure;altitude;pressure_sealevel;temperature;humidity
46946;BME280;32679;40.810;14.498;2022-08-01T00:01:12;99953.66;;;26.28;27.83
46946;BME280;32679;40.810;14.498;2022-08-01T00:03:37;99950.31;;;26.20;27.92
46946;BME280;32679;40.810;14.498;2022-08-01T00:06:02;99952.53;;;26.25;28.36
46946;BME280;32679;40.810;14.498;2022-08-01T00:08:31;99946.66;;;26.29;28.11
46946;BME280;32679;40.810;14.498;2022-08-01T00:10:56;99946.38;;;26.27;28.41
46946;BME280;32679;40.810;14.498;2022-08-01T00:13:21;99951.09;;;26.39;28.52
46946;BME280;32679;40.810;14.498;2022-08-01T00:15:49;99946.66;;;26.56;27.69
46946;BME280;32679;40.810;14.498;2022-08-01T00:18:15;99948.72;;;26.37;28.11
46946;BME280;32679;40.810;14.498;2022-08-01T00:20:40;99952.22;;;26.51;28.08
46946;BME280;32679;40.810;14.498;2022-08-01T00:23:05;99948.91;;;26.43;28.72
46946;BME280;32679;40.810;14.498;2022-08-01T00:25:31;99941.59;;;26.51;28.45
46946;BME280;32679;40.810;14.498;2022-08-01T00:27:56;99945.69;;;26.41;28.53
46946;BME280;32679;40.810;14.498;2022-08-01T00:30:22;99941.59;;;26.33;29.13
46946;BME280;32679;40.810;14.498;2022-08-01T00:32:50;99939.88;;;26.26;29.47
46946;BME280;32679;40.810;14.498;2022-08-01T00:35:15;99943.03;;;26.19;29.75
46946;BME280;32679;40.810;14.498;2022-08-01T00:37:41;99940.34;;;26.16;30.52
46946;BME280;32679;40.810;14.498;2022-08-01T00:40:10;99937.66;;;26.12;31.42
46946;BME280;32679;40.810;14.498;2022-08-01T00:42:37;99934.50;;;26.10;31.54
46946;BME280;32679;40.810;14.498;2022-08-01T00:45:03;99934.97;;;26.18;32.21
46946;BME280;32679;40.810;14.498;2022-08-01T00:47:33;99926.41;;;26.18;30.59
46946;BME280;32679;40.810;14.498;2022-08-01T00:49:59;99927.34;;;26.24;30.17
46946;BME280;32679;40.810;14.498;2022-08-01T00:52:27;99933.53;;;26.22;30.64
46946;BME280;32679;40.810;14.498;2022-08-01T00:54:55;99932.25;;;26.23;30.68
46946;BME280;32679;40.810;14.498;2022-08-01T00:57:21;99934.81;;;26.21;30.14
46946;BME280;32679;40.810;14.498;2022-08-01T00:59:46;99928.91;;;26.25;31.71
46946;BME280;32679;40.810;14.498;2022-08-01T01:02:15;99927.03;;;26.22;30.87
46946;BME280;32679;40.810;14.498;2022-08-01T01:04:42;99925.13;;;26.28;31.08
46946;BME280;32679;40.810;14.498;2022-08-01T01:07:19;99926.41;;;26.27;31.90
46946;BME280;32679;40.810;14.498;2022-08-01T01:09:56;99928.31;;;26.11;29.82
46946;BME280;32679;40.810;14.498;2022-08-01T01:17:34;99933.06;;;26.05;32.63
46946;BME280;32679;40.810;14.498;2022-08-01T01:20:03;99928.00;;;26.00;30.87
46946;BME280;32679;40.810;14.498;2022-08-01T01:30:31;99926.88;;;25.98;31.70
46946;BME280;32679;40.810;14.498;2022-08-01T01:33:02;99920.72;;;25.90;33.00
46946;BME280;32679;40.810;14.498;2022-08-01T01:35:30;99921.66;;;25.87;32.08
46946;BME280;32679;40.810;14.498;2022-08-01T01:38:01;99921.66;;;25.87;33.03
46946;BME280;32679;40.810;14.498;2022-08-01T01:40:29;99921.66;;;25.87;33.61
46946;BME280;32679;40.810;14.498;2022-08-01T01:42:55;99918.16;;;25.83;33.16
46946;BME280;32679;40.810;14.498;2022-08-01T01:45:23;99920.41;;;25.79;33.36
46946;BME280;32679;40.810;14.498;2022-08-01T01:47:51;99914.34;;;25.68;33.98
46946;BME280;32679;40.810;14.498;2022-08-01T01:50:20;99917.19;;;25.58;33.91
46946;BME280;32679;40.810;14.498;2022-08-01T01:52:49;99927.63;;;25.52;33.68
46946;BME280;32679;40.810;14.498;2022-08-01T01:55:15;99925.69;;;25.49;33.87
46946;BME280;32679;40.810;14.498;2022-08-01T01:57:42;99920.97;;;25.46;33.66
46946;BME280;32679;40.810;14.498;2022-08-01T02:00:11;99920.94;;;25.37;34.30
46946;BME280;32679;40.810;14.498;2022-08-01T02:02:37;99910.81;;;25.36;34.23
46946;BME280;32679;40.810;14.498;2022-08-01T02:05:05;99917.59;;;25.29;33.66
46946;BME280;32679;40.810;14.498;2022-08-01T02:07:31;99908.88;;;25.24;34.12
46946;BME280;32679;40.810;14.498;2022-08-01T02:09:57;99916.94;;;25.16;33.77
46946;BME280;32679;40.810;14.498;2022-08-01T02:12:30;99906.03;;;25.15;34.14
46946;BME280;32679;40.810;14.498;2022-08-01T02:14:59;99911.72;;;25.15;34.34
46946;BME280;32679;40.810;14.498;2022-08-01T02:17:25;99911.06;;;25.11;34.82
46946;BME280;32679;40.810;14.498;2022-08-01T02:19:54;99913.56;;;25.08;34.19
46946;BME280;32679;40.810;14.498;2022-08-01T02:22:27;99921.00;;;25.06;34.07
46946;BME280;32679;40.810;14.498;2022-08-01T02:25:05;99908.16;;;25.01;33.66
46946;BME280;32679;40.810;14.498;2022-08-01T02:27:34;99908.63;;;25.00;34.01
46946;BME280;32679;40.810;14.498;2022-08-01T02:30:04;99914.78;;;24.98;34.69
46946;BME280;32679;40.810;14.498;2022-08-01T02:32:31;99908.16;;;25.01;33.65
46946;BME280;32679;40.810;14.498;2022-08-01T02:34:58;99909.72;;;25.02;33.62
46946;BME280;32679;40.810;14.498;2022-08-01T02:37:26;99908.16;;;25.01;35.15
46946;BME280;32679;40.810;14.498;2022-08-01T02:39:59;99907.66;;;24.94;34.13
46946;BME280;32679;40.810;14.498;2022-08-01T02:42:30;99901.63;;;24.92;34.60
46946;BME280;32679;40.810;14.498;2022-08-01T02:44:56;99900.34;;;24.93;34.63
46946;BME280;32679;40.810;14.498;2022-08-01T02:47:25;99907.78;;;24.90;33.83
46946;BME280;32679;40.810;14.498;2022-08-01T02:49:58;99910.31;;;24.88;35.13
46946;BME280;32679;40.810;14.498;2022-08-01T02:52:24;99907.00;;;24.90;35.05
46946;BME280;32679;40.810;14.498;2022-08-01T02:55:00;99906.88;;;24.93;34.58
46946;BME280;32679;40.810;14.498;2022-08-01T02:57:29;99911.28;;;24.94;35.22
46946;BME280;32679;40.810;14.498;2022-08-01T02:59:55;99908.88;;;24.93;35.50
46946;BME280;32679;40.810;14.498;2022-08-01T03:02:23;99909.22;;;24.95;33.84
46946;BME280;32679;40.810;14.498;2022-08-01T03:04:49;99906.28;;;25.07;34.50
46946;BME280;32679;40.810;14.498;2022-08-01T03:07:16;99911.31;;;25.03;33.77
46946;BME280;32679;40.810;14.498;2022-08-01T03:09:43;99917.94;;;25.00;34.50
46946;BME280;32679;40.810;14.498;2022-08-01T03:12:14;99918.09;;;24.97;33.86
46946;BME280;32679;40.810;14.498;2022-08-01T03:14:44;99921.91;;;25.03;30.67
46946;BME280;32679;40.810;14.498;2022-08-01T03:17:13;99922.06;;;24.99;32.74
46946;BME280;32679;40.810;14.498;2022-08-01T03:19:42;99923.63;;;25.00;33.52
46946;BME280;32679;40.810;14.498;2022-08-01T03:22:12;99916.19;;;25.03;32.58
46946;BME280;32679;40.810;14.498;2022-08-01T03:24:42;99931.91;;;25.07;31.26
46946;BME280;32679;40.810;14.498;2022-08-01T03:27:09;99918.59;;;25.04;32.08
46946;BME280;32679;40.810;14.498;2022-08-01T03:29:35;99927.75;;;24.99;32.56
46946;BME280;32679;40.810;14.498;2022-08-01T03:32:01;99923.63;;;25.00;33.27
46946;BME280;32679;40.810;14.498;2022-08-01T03:34:27;99933.75;;;25.01;33.52
46946;BME280;32679;40.810;14.498;2022-08-01T03:36:59;99930.91;;;25.01;34.40
46946;BME280;32679;40.810;14.498;2022-08-01T03:39:29;99932.78;;;24.95;34.54
46946;BME280;32679;40.810;14.498;2022-08-01T03:41:56;99929.28;;;24.91;34.38
46946;BME280;32679;40.810;14.498;2022-08-01T03:44:25;99940.00;;;24.87;34.51
46946;BME280;32679;40.810;14.498;2022-08-01T03:46:54;99933.22;;;24.85;34.89
46946;BME280;32679;40.810;14.498;2022-08-01T03:49:22;99938.13;;;24.84;34.80
46946;BME280;32679;40.810;14.498;2022-08-01T03:51:49;99946.19;;;24.86;34.36
46946;BME280;32679;40.810;14.498;2022-08-01T03:54:20;99940.78;;;24.78;33.91
46946;BME280;32679;40.810;14.498;2022-08-01T03:56:46;99938.41;;;24.77;34.36
46946;BME280;32679;40.810;14.498;2022-08-01T03:59:12;99943.00;;;24.83;33.33
46946;BME280;32679;40.810;14.498;2022-08-01T04:01:39;99949.78;;;24.77;34.29
46946;BME280;32679;40.810;14.498;2022-08-01T04:04:07;99940.13;;;24.74;33.82
46946;BME280;32679;40.810;14.498;2022-08-01T04:06:33;99944.53;;;24.75;34.37
46946;BME280;32679;40.810;14.498;2022-08-01T04:08:58;99941.84;;;24.72;34.20
46946;BME280;32679;40.810;14.498;2022-08-01T04:11:24;99940.91;;;24.75;34.49
46946;BME280;32679;40.810;14.498;2022-08-01T04:13:53;99945.81;;;24.74;34.29
46946;BME280;32679;40.810;14.498;2022-08-01T04:16:22;99948.34;;;24.72;33.88
46946;BME280;32679;40.810;14.498;2022-08-01T04:18:50;99949.91;;;24.73;33.86
46946;BME280;32679;40.810;14.498;2022-08-01T04:21:17;99948.97;;;24.76;34.01
46946;BME280;32679;40.810;14.498;2022-08-01T04:23:43;99948.78;;;25.02;33.78
46946;BME280;32679;40.810;14.498;2022-08-01T04:26:12;99949.69;;;25.79;33.16
46946;BME280;32679;40.810;14.498;2022-08-01T04:28:39;99948.22;;;26.57;31.85
46946;BME280;32679;40.810;14.498;2022-08-01T04:31:06;99951.47;;;27.35;31.02
46946;BME280;32679;40.810;14.498;2022-08-01T04:33:36;99948.59;;;28.07;29.26
46946;BME280;32679;40.810;14.498;2022-08-01T04:36:03;99953.53;;;28.75;28.47
46946;BME280;32679;40.810;14.498;2022-08-01T04:38:32;99956.13;;;29.37;27.81
46946;BME280;32679;40.810;14.498;2022-08-01T04:40:58;99955.97;;;29.82;26.76
46946;BME280;32679;40.810;14.498;2022-08-01T04:43:27;99961.72;;;30.22;26.18
46946;BME280;32679;40.810;14.498;2022-08-01T04:45:55;99960.50;;;30.55;24.50
46946;BME280;32679;40.810;14.498;2022-08-01T04:48:25;99971.81;;;30.64;24.74
46946;BME280;32679;40.810;14.498;2022-08-01T04:50:53;99962.47;;;30.95;24.26
46946;BME280;32679;40.810;14.498;2022-08-01T04:53:21;99960.88;;;31.26;23.46
46946;BME280;32679;40.810;14.498;2022-08-01T04:55:47;99964.69;;;31.12;23.68
46946;BME280;32679;40.810;14.498;2022-08-01T04:58:13;99978.69;;;31.30;23.17
46946;BME280;32679;40.810;14.498;2022-08-01T05:00:44;99981.88;;;31.06;23.51
46946;BME280;32679;40.810;14.498;2022-08-01T05:03:12;99976.78;;;30.90;23.99
46946;BME280;32679;40.810;14.498;2022-08-01T05:05:37;99977.84;;;30.92;24.31
46946;BME280;32679;40.810;14.498;2022-08-01T05:08:05;99979.25;;;30.76;23.62
46946;BME280;32679;40.810;14.498;2022-08-01T05:10:33;99976.50;;;30.88;23.85
46946;BME280;32679;40.810;14.498;2022-08-01T05:13:01;99970.59;;;31.28;23.93
46946;BME280;32679;40.810;14.498;2022-08-01T05:15:26;99977.72;;;31.81;23.05
46946;BME280;32679;40.810;14.498;2022-08-01T05:17:58;99985.84;;;31.89;23.28
46946;BME280;32679;40.810;14.498;2022-08-01T05:20:23;99978.91;;;32.12;23.83
46946;BME280;32679;40.810;14.498;2022-08-01T05:22:51;99976.69;;;31.47;23.66
46946;BME280;32679;40.810;14.498;2022-08-01T05:25:16;99982.06;;;31.66;23.53
46946;BME280;32679;40.810;14.498;2022-08-01T05:27:42;99982.78;;;32.03;23.63
46946;BME280;32679;40.810;14.498;2022-08-01T05:30:14;99987.03;;;32.19;23.12
46946;BME280;32679;40.810;14.498;2022-08-01T05:32:39;99992.19;;;32.92;23.05
46946;BME280;32679;40.810;14.498;2022-08-01T05:35:06;99986.94;;;33.18;22.66
46946;BME280;32679;40.810;14.498;2022-08-01T05:37:32;99989.28;;;32.75;22.10
46946;BME280;32679;40.810;14.498;2022-08-01T05:39:57;99992.56;;;32.28;22.26
46946;BME280;32679;40.810;14.498;2022-08-01T05:42:22;99983.50;;;32.69;22.28
46946;BME280;32679;40.810;14.498;2022-08-01T05:44:48;99985.94;;;32.99;22.36
46946;BME280;32679;40.810;14.498;2022-08-01T05:47:15;99990.66;;;33.41;22.67
46946;BME280;32679;40.810;14.498;2022-08-01T05:49:44;99998.25;;;33.05;22.00
46946;BME280;32679;40.810;14.498;2022-08-01T05:52:15;99991.59;;;32.65;22.52
46946;BME280;32679;40.810;14.498;2022-08-01T05:54:43;99989.56;;;33.50;21.37
46946;BME280;32679;40.810;14.498;2022-08-01T05:57:11;99989.34;;;33.14;21.88
46946;BME280;32679;40.810;14.498;2022-08-01T05:59:36;99990.63;;;33.35;21.10
46946;BME280;32679;40.810;14.498;2022-08-01T06:02:02;99990.41;;;34.25;20.43
46946;BME280;32679;40.810;14.498;2022-08-01T06:04:30;99993.16;;;33.84;20.59
46946;BME280;32679;40.810;14.498;2022-08-01T06:06:57;99998.19;;;33.72;21.23
46946;BME280;32679;40.810;14.498;2022-08-01T06:09:23;99993.22;;;34.36;20.38
46946;BME280;32679;40.810;14.498;2022-08-01T06:11:48;99997.06;;;33.98;20.74
46946;BME280;32679;40.810;14.498;2022-08-01T06:14:16;100000.00;;;33.70;21.25
46946;BME280;32679;40.810;14.498;2022-08-01T06:16:46;100000.97;;;34.06;21.15
46946;BME280;32679;40.810;14.498;2022-08-01T06:19:12;100002.88;;;33.75;21.45
46946;BME280;32679;40.810;14.498;2022-08-01T06:21:37;100005.56;;;33.17;22.74
46946;BME280;32679;40.810;14.498;2022-08-01T06:24:03;99998.47;;;33.18;22.48
46946;BME280;32679;40.810;14.498;2022-08-01T06:26:28;100011.06;;;33.15;22.93
46946;BME280;32679;40.810;14.498;2022-08-01T06:28:54;100005.78;;;32.74;23.39
46946;BME280;32679;40.810;14.498;2022-08-01T06:31:19;100012.13;;;33.01;23.21
46946;BME280;32679;40.810;14.498;2022-08-01T06:33:44;100011.63;;;33.42;22.33
46946;BME280;32679;40.810;14.498;2022-08-01T06:36:10;100010.22;;;32.70;23.31
46946;BME280;32679;40.810;14.498;2022-08-01T06:38:35;100010.03;;;33.29;22.37
46946;BME280;32679;40.810;14.498;2022-08-01T06:41:01;100003.19;;;33.55;22.04
46946;BME280;32679;40.810;14.498;2022-08-01T06:43:27;100007.84;;;33.80;21.78
46946;BME280;32679;40.810;14.498;2022-08-01T06:45:52;100011.84;;;33.44;22.43
46946;BME280;32679;40.810;14.498;2022-08-01T06:48:18;100005.50;;;33.84;21.99
46946;BME280;32679;40.810;14.498;2022-08-01T06:50:48;100019.13;;;33.84;22.51
46946;BME280;32679;40.810;14.498;2022-08-01T06:53:33;100009.94;;;33.85;22.02
46946;BME280;32679;40.810;14.498;2022-08-01T06:55:58;100014.47;;;33.53;22.84
46946;BME280;32679;40.810;14.498;2022-08-01T06:58:23;100021.31;;;34.30;21.99
46946;BME280;32679;40.810;14.498;2022-08-01T07:00:49;100016.56;;;33.58;22.84
46946;BME280;32679;40.810;14.498;2022-08-01T07:03:14;100013.28;;;34.12;22.69
46946;BME280;32679;40.810;14.498;2022-08-01T07:05:42;100020.44;;;33.88;22.98
46946;BME280;32679;40.810;14.498;2022-08-01T07:08:07;100017.34;;;33.64;22.83
46946;BME280;32679;40.810;14.498;2022-08-01T07:10:35;100009.97;;;33.74;23.02
46946;BME280;32679;40.810;14.498;2022-08-01T07:13:00;100012.31;;;33.76;22.57
46946;BME280;32679;40.810;14.498;2022-08-01T07:15:28;100020.50;;;33.55;22.85
46946;BME280;32679;40.810;14.498;2022-08-01T07:17:54;100008.63;;;33.86;22.57
46946;BME280;32679;40.810;14.498;2022-08-01T07:20:19;100012.13;;;33.57;23.24
46946;BME280;32679;40.810;14.498;2022-08-01T07:22:47;100004.50;;;33.31;23.81
46946;BME280;32679;40.810;14.498;2022-08-01T07:25:13;100004.25;;;33.07;24.02
46946;BME280;32679;40.810;14.498;2022-08-01T07:27:38;100006.88;;;32.99;24.15
46946;BME280;32679;40.810;14.498;2022-08-01T07:30:12;99997.06;;;34.56;22.36
46946;BME280;32679;40.810;14.498;2022-08-01T07:32:37;100005.13;;;34.16;22.63
46946;BME280;32679;40.810;14.498;2022-08-01T07:35:06;100004.72;;;33.78;23.04
46946;BME280;32679;40.810;14.498;2022-08-01T07:37:31;100008.41;;;33.73;23.38
46946;BME280;32679;40.810;14.498;2022-08-01T07:39:56;99998.41;;;34.49;22.17
46946;BME280;32679;40.810;14.498;2022-08-01T07:42:22;100005.78;;;35.52;20.94
46946;BME280;32679;40.810;14.498;2022-08-01T07:44:53;100006.06;;;36.40;20.20
46946;BME280;32679;40.810;14.498;2022-08-01T07:47:23;100004.66;;;35.60;20.14
46946;BME280;32679;40.810;14.498;2022-08-01T07:49:51;100014.53;;;35.95;19.94
46946;BME280;32679;40.810;14.498;2022-08-01T07:52:19;100005.53;;;35.74;20.16
46946;BME280;32679;40.810;14.498;2022-08-01T07:54:47;100007.66;;;35.19;19.74
46946;BME280;32679;40.810;14.498;2022-08-01T07:57:15;100005.78;;;36.63;19.36
46946;BME280;32679;40.810;14.498;2022-08-01T07:59:40;100010.69;;;36.30;19.06
46946;BME280;32679;40.810;14.498;2022-08-01T08:02:06;100002.41;;;36.78;18.89
46946;BME280;32679;40.810;14.498;2022-08-01T08:04:31;100009.88;;;37.05;18.73
46946;BME280;32679;40.810;14.498;2022-08-01T08:06:59;100002.06;;;37.00;18.58
46946;BME280;32679;40.810;14.498;2022-08-01T08:09:30;100012.03;;;37.76;18.55
46946;BME280;32679;40.810;14.498;2022-08-01T08:11:55;99999.09;;;36.30;19.22
46946;BME280;32679;40.810;14.498;2022-08-01T08:14:21;100001.19;;;36.11;19.80
46946;BME280;32679;40.810;14.498;2022-08-01T08:16:49;100002.28;;;35.83;19.68
46946;BME280;32679;40.810;14.498;2022-08-01T08:19:14;100008.53;;;35.93;19.47
46946;BME280;32679;40.810;14.498;2022-08-01T08:21:42;99996.75;;;36.10;19.20
46946;BME280;32679;40.810;14.498;2022-08-01T08:24:08;99994.03;;;35.14;20.18
46946;BME280;32679;40.810;14.498;2022-08-01T08:26:53;99991.47;;;35.65;19.28
46946;BME280;32679;40.810;14.498;2022-08-01T08:29:22;99991.25;;;35.82;19.48
46946;BME280;32679;40.810;14.498;2022-08-01T08:31:48;99989.03;;;36.56;19.08
46946;BME280;32679;40.810;14.498;2022-08-01T08:34:14;99986.78;;;36.81;19.46
46946;BME280;32679;40.810;14.498;2022-08-01T08:36:39;99986.78;;;36.81;19.31
46946;BME280;32679;40.810;14.498;2022-08-01T08:39:07;99994.47;;;36.78;19.14
46946;BME280;32679;40.810;14.498;2022-08-01T08:41:33;99995.38;;;37.37;18.31
46946;BME280;32679;40.810;14.498;2022-08-01T08:44:02;99995.53;;;37.71;18.14
46946;BME280;32679;40.810;14.498;2022-08-01T08:46:31;99998.56;;;38.06;17.88
46946;BME280;32679;40.810;14.498;2022-08-01T08:48:58;99996.38;;;38.46;17.50
46946;BME280;32679;40.810;14.498;2022-08-01T08:51:25;99996.41;;;35.94;19.72
46946;BME280;32679;40.810;14.498;2022-08-01T08:53:51;99991.81;;;35.80;19.83
46946;BME280;32679;40.810;14.498;2022-08-01T08:56:19;99988.19;;;35.74;19.56
46946;BME280;32679;40.810;14.498;2022-08-01T08:58:45;99987.66;;;35.51;20.07
46946;BME280;32679;40.810;14.498;2022-08-01T09:01:11;99990.00;;;36.20;19.44
46946;BME280;32679;40.810;14.498;2022-08-01T09:03:37;99985.16;;;36.10;19.48
46946;BME280;32679;40.810;14.498;2022-08-01T09:06:06;99976.50;;;35.06;21.11
46946;BME280;32679;40.810;14.498;2022-08-01T09:08:32;99982.59;;;36.06;20.27
46946;BME280;32679;40.810;14.498;2022-08-01T09:11:00;99981.75;;;36.49;19.05
46946;BME280;32679;40.810;14.498;2022-08-01T09:13:25;99980.31;;;35.50;19.59
46946;BME280;32679;40.810;14.498;2022-08-01T09:15:52;99981.47;;;35.85;19.87
46946;BME280;32679;40.810;14.498;2022-08-01T09:21:08;99972.88;;;35.79;19.67
46946;BME280;32679;40.810;14.498;2022-08-01T09:23:35;99976.50;;;36.47;18.96
46946;BME280;32679;40.810;14.498;2022-08-01T09:26:04;99986.28;;;37.14;18.61
46946;BME280;32679;40.810;14.498;2022-08-01T09:28:29;99976.09;;;36.57;19.04
46946;BME280;32679;40.810;14.498;2022-08-01T09:30:55;99978.09;;;37.00;18.56
46946;BME280;32679;40.810;14.498;2022-08-01T09:33:21;99963.91;;;36.45;18.55
46946;BME280;32679;40.810;14.498;2022-08-01T09:35:46;99972.75;;;36.53;17.98
46946;BME280;32679;40.810;14.498;2022-08-01T09:38:24;99966.06;;;37.41;17.54
46946;BME280;32679;40.810;14.498;2022-08-01T09:40:53;99973.59;;;35.85;18.88
46946;BME280;32679;40.810;14.498;2022-08-01T09:43:19;99967.50;;;35.40;19.07
46946;BME280;32679;40.810;14.498;2022-08-01T09:45:45;99971.94;;;33.70;20.78
46946;BME280;32679;40.810;14.498;2022-08-01T09:48:13;99954.91;;;34.30;20.03
46946;BME280;32679;40.810;14.498;2022-08-01T09:50:42;99969.22;;;34.94;20.06
46946;BME280;32679;40.810;14.498;2022-08-01T09:53:08;99961.78;;;35.34;19.33
46946;BME280;32679;40.810;14.498;2022-08-01T09:55:33;99959.66;;;35.05;19.62
46946;BME280;32679;40.810;14.498;2022-08-01T09:57:59;99963.81;;;35.39;20.32
46946;BME280;32679;40.810;14.498;2022-08-01T10:00:26;99954.31;;;34.84;20.66
46946;BME280;32679;40.810;14.498;2022-08-01T10:02:56;99956.00;;;35.04;20.37
46946;BME280;32679;40.810;14.498;2022-08-01T10:05:31;99956.56;;;34.61;20.07
46946;BME280;32679;40.810;14.498;2022-08-01T10:08:00;99958.69;;;35.27;19.67
46946;BME280;32679;40.810;14.498;2022-08-01T10:10:29;99976.31;;;35.78;19.53
46946;BME280;32679;40.810;14.498;2022-08-01T10:12:57;99961.13;;;36.15;19.18
46946;BME280;32679;40.810;14.498;2022-08-01T10:15:26;99949.72;;;35.79;19.73
46946;BME280;32679;40.810;14.498;2022-08-01T10:17:53;99953.78;;;36.52;19.20
46946;BME280;32679;40.810;14.498;2022-08-01T10:20:19;99959.66;;;36.65;18.80
46946;BME280;32679;40.810;14.498;2022-08-01T10:22:45;99953.56;;;36.12;19.54
46946;BME280;32679;40.810;14.498;2022-08-01T10:25:11;99961.50;;;35.08;20.16
46946;BME280;32679;40.810;14.498;2022-08-01T10:27:42;99961.91;;;34.87;20.57
46946;BME280;32679;40.810;14.498;2022-08-01T10:30:12;99950.53;;;35.55;19.62
46946;BME280;32679;40.810;14.498;2022-08-01T10:32:41;99953.22;;;34.87;20.47
46946;BME280;32679;40.810;14.498;2022-08-01T10:35:12;99949.00;;;34.88;20.61
46946;BME280;32679;40.810;14.498;2022-08-01T10:37:44;99947.66;;;35.74;19.96
46946;BME280;32679;40.810;14.498;2022-08-01T10:40:14;99941.63;;;34.16;21.00
46946;BME280;32679;40.810;14.498;2022-08-01T10:42:41;99939.97;;;35.03;20.44
46946;BME280;32679;40.810;14.498;2022-08-01T10:45:09;99928.66;;;35.79;20.27
46946;BME280;32679;40.810;14.498;2022-08-01T10:47:40;99939.41;;;35.84;19.54
46946;BME280;32679;40.810;14.498;2022-08-01T10:50:15;99940.19;;;35.84;20.12
46946;BME280;32679;40.810;14.498;2022-08-01T10:55:28;99935.06;;;34.92;20.00
46946;BME280;32679;40.810;14.498;2022-08-01T10:57:56;99937.09;;;34.67;20.46
46946;BME280;32679;40.810;14.498;2022-08-01T11:00:27;99924.81;;;34.91;20.72
46946;BME280;32679;40.810;14.498;2022-08-01T11:02:59;99931.97;;;34.85;21.01
46946;BME280;32679;40.810;14.498;2022-08-01T11:05:34;99921.50;;;34.40;21.05
46946;BME280;32679;40.810;14.498;2022-08-01T11:08:01;99921.09;;;34.25;21.81
46946;BME280;32679;40.810;14.498;2022-08-01T11:12:56;99917.69;;;34.68;21.14
46946;BME280;32679;40.810;14.498;2022-08-01T11:15:29;99912.59;;;35.34;20.31
46946;BME280;32679;40.810;14.498;2022-08-01T11:18:41;99911.16;;;35.71;19.77
46946;BME280;32679;40.810;14.498;2022-08-01T11:20:56;99907.00;;;34.87;21.37
46946;BME280;32679;40.810;14.498;2022-08-01T11:23:22;99894.03;;;35.73;20.29
46946;BME280;32679;40.810;14.498;2022-08-01T11:34:09;99886.53;;;34.85;21.15
46946;BME280;32679;40.810;14.498;2022-08-01T11:36:20;99888.88;;;35.17;20.93
46946;BME280;32679;40.810;14.498;2022-08-01T11:43:56;99892.47;;;35.48;20.56
46946;BME280;32679;40.810;14.498;2022-08-01T11:51:47;99875.63;;;36.65;19.16
46946;BME280;32679;40.810;14.498;2022-08-01T11:54:15;99887.47;;;35.91;19.82
46946;BME280;32679;40.810;14.498;2022-08-01T11:56:41;99880.16;;;34.92;20.38
46946;BME280;32679;40.810;14.498;2022-08-01T11:59:06;99875.22;;;35.36;20.90
46946;BME280;32679;40.810;14.498;2022-08-01T12:01:37;99874.66;;;36.06;20.11
46946;BME280;32679;40.810;14.498;2022-08-01T12:04:02;99873.53;;;35.90;20.33
46946;BME280;32679;40.810;14.498;2022-08-01T12:06:28;99866.81;;;35.38;20.32
46946;BME280;32679;40.810;14.498;2022-08-01T12:08:54;99878.56;;;34.97;21.18
46946;BME280;32679;40.810;14.498;2022-08-01T12:11:22;99862.19;;;34.75;21.99
46946;BME280;32679;40.810;14.498;2022-08-01T12:13:47;99866.34;;;34.50;21.44
46946;BME280;32679;40.810;14.498;2022-08-01T12:16:14;99868.75;;;34.40;21.98
46946;BME280;32679;40.810;14.498;2022-08-01T12:18:40;99864.78;;;34.49;21.08
46946;BME280;32679;40.810;14.498;2022-08-01T12:21:09;99860.53;;;35.10;21.10
46946;BME280;32679;40.810;14.498;2022-08-01T12:23:34;99856.84;;;34.85;20.84
46946;BME280;32679;40.810;14.498;2022-08-01T12:25:59;99852.44;;;35.08;20.84
46946;BME280;32679;40.810;14.498;2022-08-01T12:28:26;99855.78;;;35.37;21.53
46946;BME280;32679;40.810;14.498;2022-08-01T12:31:00;99863.06;;;35.43;21.03
46946;BME280;32679;40.810;14.498;2022-08-01T12:33:25;99853.94;;;36.02;20.44
46946;BME280;32679;40.810;14.498;2022-08-01T12:35:53;99851.47;;;36.25;20.36
46946;BME280;32679;40.810;14.498;2022-08-01T12:38:22;99837.00;;;36.06;19.87
46946;BME280;32679;40.810;14.498;2022-08-01T12:40:52;99827.34;;;36.35;19.78
46946;BME280;32679;40.810;14.498;2022-08-01T12:43:18;99829.91;;;35.69;20.40
46946;BME280;32679;40.810;14.498;2022-08-01T12:45:49;99843.78;;;35.52;20.58
46946;BME280;32679;40.810;14.498;2022-08-01T12:48:18;99842.16;;;35.56;20.82
46946;BME280;32679;40.810;14.498;2022-08-01T12:50:47;99828.97;;;35.99;20.30
46946;BME280;32679;40.810;14.498;2022-08-01T12:53:16;99838.09;;;36.21;19.66
46946;BME280;32679;40.810;14.498;2022-08-01T12:55:44;99829.28;;;35.76;20.37
46946;BME280;32679;40.810;14.498;2022-08-01T12:58:11;99833.03;;;35.71;20.54
46946;BME280;32679;40.810;14.498;2022-08-01T13:00:40;99817.31;;;34.99;21.51
46946;BME280;32679;40.810;14.498;2022-08-01T13:03:10;99819.34;;;34.49;21.68
46946;BME280;32679;40.810;14.498;2022-08-01T13:08:09;99817.75;;;34.78;21.73
46946;BME280;32679;40.810;14.498;2022-08-01T13:10:41;99814.06;;;35.08;21.42
46946;BME280;32679;40.810;14.498;2022-08-01T13:13:07;99820.75;;;34.97;21.46
46946;BME280;32679;40.810;14.498;2022-08-01T13:15:33;99809.56;;;34.58;21.78
46946;BME280;32679;40.810;14.498;2022-08-01T13:18:21;99807.53;;;35.51;20.87
46946;BME280;32679;40.810;14.498;2022-08-01T13:20:50;99808.84;;;35.87;20.60
46946;BME280;32679;40.810;14.498;2022-08-01T13:23:16;99810.34;;;36.13;20.57
46946;BME280;32679;40.810;14.498;2022-08-01T13:25:52;99811.69;;;36.12;20.04
46946;BME280;32679;40.810;14.498;2022-08-01T13:28:22;99816.69;;;35.55;20.56
46946;BME280;32679;40.810;14.498;2022-08-01T13:30:51;99804.25;;;35.60;20.49
46946;BME280;32679;40.810;14.498;2022-08-01T13:33:17;99808.50;;;35.34;20.64